Time;durP1;ratioP1;P1;durP2;ratioP2;P2;SDS_P1;SDS_P2;PMS_P1;PMS_P2;Temp;Humidity;BMP_temperature;BMP_pressure;BME280_temperature;BME280_humidity;BME280_pressure;Samples;Min_cycle;Max_cycle;Signal;HPM_P1;HPM_P2
2021/07/02 00:02:22;;;;;;;;;;;;;;;15.31;100.00;100683.56;5073013;28;19960;-70
2021/07/02 00:04:48;;;;;;;;;;;;;;;15.28;100.00;100682.00;5073237;28;19966;-70
2021/07/02 00:07:14;;;;;;;;;;;;;;;15.26;100.00;100672.22;5072993;28;19974;-70
2021/07/02 00:09:40;;;;;;;;;;;;;;;15.25;100.00;100673.28;5072836;28;19920;-70
2021/07/02 00:12:07;;;;;;;;;;;;;;;15.24;100.00;100677.84;5072984;28;19920;-70
2021/07/02 00:14:35;;;;;;;;;;;;;;;15.30;100.00;100673.63;5072903;28;20409;-70
2021/07/02 00:17:01;;;;;;;;;;;;;;;15.30;100.00;100671.78;5072881;28;20379;-70
2021/07/02 00:19:29;;;;;;;;;;;;;;;15.31;100.00;100672.63;5072729;28;20016;-70
2021/07/02 00:21:56;;;;;;;;;;;;;;;15.32;100.00;100677.09;5074909;28;20309;-70
2021/07/02 00:24:22;;;;;;;;;;;;;;;15.32;100.00;100675.19;5072577;28;19973;-70
2021/07/02 00:26:48;;;;;;;;;;;;;;;15.33;100.00;100671.44;5072703;28;20375;-70
2021/07/02 00:29:14;;;;;;;;;;;;;;;15.37;100.00;100669.28;5072376;28;19924;-70
2021/07/02 00:31:42;;;;;;;;;;;;;;;15.37;100.00;100670.13;5072854;28;19924;-70
2021/07/02 00:34:08;;;;;;;;;;;;;;;15.37;100.00;100669.28;5072673;28;20434;-70
2021/07/02 00:36:35;;;;;;;;;;;;;;;15.36;100.00;100671.13;5072438;28;20032;-70
2021/07/02 00:39:01;;;;;;;;;;;;;;;15.33;100.00;100670.59;5072367;28;20303;-70
2021/07/02 00:41:27;;;;;;;;;;;;;;;15.34;100.00;100666.81;5072387;28;19921;-70
2021/07/02 00:43:55;;;;;;;;;;;;;;;15.32;100.00;100661.53;5054489;28;19920;-70
2021/07/02 00:46:22;;;;;;;;;;;;;;;15.34;100.00;100666.81;5071862;28;19951;-70
2021/07/02 00:48:50;;;;;;;;;;;;;;;15.34;100.00;100669.56;5053909;28;19920;-70
2021/07/02 00:51:17;;;;;;;;;;;;;;;15.32;100.00;100668.88;5054277;28;19924;-70
2021/07/02 00:53:45;;;;;;;;;;;;;;;15.34;100.00;100669.56;5054481;28;20338;-70
2021/07/02 00:56:16;;;;;;;;;;;;;;;15.35;100.00;100672.16;5071960;28;19985;-70
2021/07/02 00:58:42;;;;;;;;;;;;;;;15.35;100.00;100665.81;5071917;28;19920;-70
2021/07/02 01:01:14;;;;;;;;;;;;;;;15.31;100.00;100661.69;5053543;28;19920;-70
2021/07/02 01:03:40;;;;;;;;;;;;;;;15.35;100.00;100661.22;5054182;28;19920;-70
2021/07/02 01:06:08;;;;;;;;;;;;;;;15.36;100.00;100657.44;5071412;28;19920;-69
2021/07/02 01:08:35;;;;;;;;;;;;;;;15.37;100.00;100656.44;5053922;28;20001;-70
2021/07/02 01:11:02;;;;;;;;;;;;;;;15.36;100.00;100653.88;5071150;28;20007;-70
2021/07/02 01:13:28;;;;;;;;;;;;;;;15.40;100.00;100653.38;5053894;28;19921;-70
2021/07/02 01:15:55;;;;;;;;;;;;;;;15.41;100.00;100651.53;5071812;28;19927;-70
2021/07/02 01:18:23;;;;;;;;;;;;;;;15.40;100.00;100661.59;5071392;28;19920;-70
2021/07/02 01:20:52;;;;;;;;;;;;;;;15.41;100.00;100659.72;5053784;28;19920;-70
2021/07/02 01:23:20;;;;;;;;;;;;;;;15.40;100.00;100660.75;5053260;28;19963;-70
2021/07/02 01:25:47;;;;;;;;;;;;;;;15.42;100.00;100663.31;5053680;28;19920;-70
2021/07/02 01:28:14;;;;;;;;;;;;;;;15.39;100.00;100650.81;5071271;28;19967;-70
2021/07/02 01:30:43;;;;;;;;;;;;;;;15.39;100.00;100653.53;5071418;28;19927;-70
2021/07/02 01:33:10;;;;;;;;;;;;;;;15.42;100.00;100656.00;5053592;28;19990;-70
2021/07/02 01:35:38;;;;;;;;;;;;;;;15.45;100.00;100652.94;5053600;28;19974;-70
2021/07/02 01:38:06;;;;;;;;;;;;;;;15.49;100.00;100662.53;5071300;28;20035;-70
2021/07/02 01:40:33;;;;;;;;;;;;;;;15.53;100.00;100665.81;5070935;28;19973;-70
2021/07/02 01:43:02;;;;;;;;;;;;;;;15.56;100.00;100669.06;5071471;28;19963;-70
2021/07/02 01:45:30;;;;;;;;;;;;;;;15.55;100.00;100667.38;5071236;28;19920;-70
2021/07/02 01:47:57;;;;;;;;;;;;;;;15.55;100.00;100664.63;5053553;28;19925;-70
2021/07/02 01:50:27;;;;;;;;;;;;;;;15.60;100.00;100668.78;5053270;28;19927;-70
2021/07/02 01:52:54;;;;;;;;;;;;;;;15.60;100.00;100666.88;5053411;28;19924;-70
2021/07/02 01:55:23;;;;;;;;;;;;;;;15.62;100.00;100674.94;5053102;28;19924;-70
2021/07/02 01:57:51;;;;;;;;;;;;;;;15.65;100.00;100672.75;5053115;28;19921;-69
2021/07/02 02:00:24;;;;;;;;;;;;;;;15.68;100.00;100682.50;5053198;28;19932;-70
2021/07/02 02:03:01;;;;;;;;;;;;;;;15.67;100.00;100669.84;5053401;28;20340;-70
2021/07/02 02:05:28;;;;;;;;;;;;;;;15.67;100.00;100673.47;5070873;28;19971;-70
2021/07/02 02:07:55;;;;;;;;;;;;;;;15.65;100.00;100674.63;5070952;28;19920;-70
2021/07/02 02:10:24;;;;;;;;;;;;;;;15.66;100.00;100670.84;5070979;28;20002;-70
2021/07/02 02:12:52;;;;;;;;;;;;;;;15.64;100.00;100671.00;5071255;28;20306;-70
2021/07/02 02:15:18;;;;;;;;;;;;;;;15.67;100.00;100661.63;5052745;28;19927;-70
2021/07/02 02:17:50;;;;;;;;;;;;;;;15.66;100.00;100668.13;5053099;28;20291;-70
2021/07/02 02:20:17;;;;;;;;;;;;;;;15.67;100.00;100673.47;5074282;28;19923;-70
2021/07/02 02:22:44;;;;;;;;;;;;;;;15.68;100.00;100677.03;5073373;28;19970;-70
2021/07/02 02:25:12;;;;;;;;;;;;;;;15.69;100.00;100678.75;5076917;28;19920;-70
2021/07/02 02:27:42;;;;;;;;;;;;;;;15.69;100.00;100676.88;5076940;28;19923;-70
2021/07/02 02:30:09;;;;;;;;;;;;;;;15.68;100.00;100677.03;5095280;28;19959;-70
2021/07/02 02:32:37;;;;;;;;;;;;;;;15.70;100.00;100680.47;5077002;28;20370;-70
2021/07/02 02:35:05;;;;;;;;;;;;;;;15.73;100.00;100680.16;5076877;28;20398;-70
2021/07/02 02:37:32;;;;;;;;;;;;;;;15.73;100.00;100682.91;5076864;28;19927;-69
2021/07/02 02:39:58;;;;;;;;;;;;;;;15.72;100.00;100679.28;5094939;28;19920;-70
2021/07/02 02:42:25;;;;;;;;;;;;;;;15.73;100.00;100670.06;5095142;28;19965;-70
2021/07/02 02:44:53;;;;;;;;;;;;;;;15.71;100.00;100674.84;5094814;28;19995;-69
2021/07/02 02:47:19;;;;;;;;;;;;;;;15.73;100.00;100672.81;5076625;28;19924;-70
2021/07/02 02:49:46;;;;;;;;;;;;;;;15.75;100.00;100691.78;5094764;28;19945;-70
2021/07/02 02:52:12;;;;;;;;;;;;;;;15.74;100.00;100682.72;5094702;28;19920;-70
2021/07/02 02:54:39;;;;;;;;;;;;;;;15.72;100.00;100679.28;5093209;28;19963;-70
2021/07/02 02:57:07;;;;;;;;;;;;;;;15.73;100.00;100691.94;5094449;28;19920;-70
2021/07/02 02:59:39;;;;;;;;;;;;;;;15.77;100.00;100692.50;5094652;28;19927;-70
2021/07/02 03:02:07;;;;;;;;;;;;;;;15.80;100.00;100674.91;5094443;28;19927;-70
2021/07/02 03:04:36;;;;;;;;;;;;;;;15.81;100.00;100680.25;5094493;28;19936;-70
2021/07/02 03:07:05;;;;;;;;;;;;;;;15.86;100.00;100685.22;5092989;28;19924;-70
2021/07/02 03:09:33;;;;;;;;;;;;;;;15.87;100.00;100686.94;5076324;28;19919;-70
2021/07/02 03:12:00;;;;;;;;;;;;;;;15.89;100.00;100684.94;5076409;28;20257;-70
2021/07/02 03:14:28;;;;;;;;;;;;;;;15.89;100.00;100682.19;5093694;28;19934;-68
2021/07/02 03:16:55;;;;;;;;;;;;;;;15.91;100.00;100680.13;5075893;28;19942;-70
2021/07/02 03:19:24;;;;;;;;;;;;;;;15.95;100.00;100688.91;5092920;28;19973;-70
2021/07/02 03:21:53;;;;;;;;;;;;;;;15.94;100.00;100687.16;5076162;28;20394;-69
2021/07/02 03:24:20;;;;;;;;;;;;;;;15.92;100.00;100690.06;5075990;28;20301;-69
2021/07/02 03:26:47;;;;;;;;;;;;;;;15.96;100.00;100693.34;5094147;28;19924;-70
2021/07/02 03:29:13;;;;;;;;;;;;;;;15.97;100.00;100693.19;5075907;28;19996;-70
2021/07/02 03:31:39;;;;;;;;;;;;;;;15.99;100.00;100695.75;5092653;28;20365;-70
2021/07/02 03:34:07;;;;;;;;;;;;;;;16.00;100.00;100703.81;5093476;28;19963;-70
2021/07/02 03:36:35;;;;;;;;;;;;;;;16.05;100.00;100697.88;5093865;28;19981;-69
2021/07/02 03:39:02;;;;;;;;;;;;;;;16.10;100.00;100698.25;5075726;28;19920;-70
2021/07/02 03:41:28;;;;;;;;;;;;;;;16.12;100.00;100695.34;5093896;28;19926;-69
2021/07/02 03:43:54;;;;;;;;;;;;;;;16.13;100.00;100697.03;5075953;28;20063;-68
2021/07/02 03:46:21;;;;;;;;;;;;;;;16.20;100.00;100696.22;5075658;28;19920;-70
2021/07/02 03:48:48;;;;;;;;;;;;;;;16.23;100.00;100695.94;5093432;28;19927;-70
2021/07/02 03:51:15;;;;;;;;;;;;;;;16.28;100.00;100702.78;5093696;28;19969;-69
2021/07/02 03:53:42;;;;;;;;;;;;;;;16.28;100.00;100702.78;5093929;28;19924;-67
2021/07/02 03:56:09;;;;;;;;;;;;;;;16.27;100.00;100693.69;5093619;28;19962;-67
2021/07/02 03:58:35;;;;;;;;;;;;;;;16.27;100.00;100699.19;5093413;28;19920;-67
2021/07/02 04:01:01;;;;;;;;;;;;;;;16.29;100.00;100704.50;5075354;28;19963;-67
2021/07/02 04:03:28;;;;;;;;;;;;;;;16.35;100.00;100701.09;5093448;28;19920;-67
2021/07/02 04:05:55;;;;;;;;;;;;;;;16.35;100.00;100701.09;5093208;28;19970;-67
2021/07/02 04:08:21;;;;;;;;;;;;;;;16.38;100.00;100695.28;5093026;28;20353;-68
2021/07/02 04:10:49;;;;;;;;;;;;;;;16.40;100.00;100710.53;5093165;28;20355;-66
2021/07/02 04:13:15;;;;;;;;;;;;;;;16.42;100.00;100706.78;5093009;28;20014;-68
2021/07/02 04:15:42;;;;;;;;;;;;;;;16.45;100.00;100700.97;5075179;28;20380;-66
2021/07/02 04:18:08;;;;;;;;;;;;;;;16.47;100.00;100698.94;5092980;28;19943;-66
2021/07/02 04:20:34;;;;;;;;;;;;;;;16.51;100.00;100703.91;5093010;28;20019;-67
2021/07/02 04:23:01;;;;;;;;;;;;;;;16.53;100.00;100701.88;5093050;28;19947;-68
2021/07/02 04:25:27;;;;;;;;;;;;;;;16.66;100.00;100708.78;5089214;28;20014;-68
2021/07/02 04:27:55;;;;;;;;;;;;;;;16.72;100.00;100713.63;5092011;28;19973;-68
2021/07/02 04:30:21;;;;;;;;;;;;;;;16.79;100.00;100716.56;5092465;28;20336;-67
2021/07/02 04:32:48;;;;;;;;;;;;;;;16.81;100.00;100715.38;5092506;28;19960;-67
2021/07/02 04:35:14;;;;;;;;;;;;;;;16.86;100.00;100721.22;5092491;28;20009;-67
2021/07/02 04:37:41;;;;;;;;;;;;;;;16.88;100.00;100719.16;5092309;28;19977;-66
2021/07/02 04:40:08;;;;;;;;;;;;;;;16.96;100.00;100717.50;5092685;28;19920;-66
2021/07/02 04:42:35;;;;;;;;;;;;;;;17.00;100.00;100721.63;5092743;28;19955;-67
2021/07/02 04:45:03;;;;;;;;;;;;;;;17.03;100.00;100726.78;5092508;28;19970;-67
2021/07/02 04:47:30;;;;;;;;;;;;;;;16.98;100.00;100719.06;5091492;28;20018;-67
2021/07/02 04:49:56;;;;;;;;;;;;;;;16.94;100.00;100716.81;5092745;28;20020;-67
2021/07/02 04:52:22;;;;;;;;;;;;;;;16.78;100.00;100715.69;5091347;28;20011;-67
2021/07/02 04:54:49;;;;;;;;;;;;;;;16.78;100.00;100712.94;5091843;28;19959;-67
2021/07/02 04:57:15;;;;;;;;;;;;;;;16.90;100.00;100722.63;5091881;28;19969;-66
2021/07/02 04:59:43;;;;;;;;;;;;;;;16.90;100.00;100719.88;5090864;28;19927;-66
2021/07/02 05:02:10;;;;;;;;;;;;;;;17.10;100.00;100730.53;5092372;28;19927;-66
2021/07/02 05:04:37;;;;;;;;;;;;;;;17.28;100.00;100730.44;5091554;28;20016;-66
2021/07/02 05:07:03;;;;;;;;;;;;;;;17.46;100.00;100729.44;5091671;28;19924;-66
2021/07/02 05:09:30;;;;;;;;;;;;;;;17.67;100.00;100734.41;5091656;28;20006;-67
2021/07/02 05:11:56;;;;;;;;;;;;;;;17.77;100.00;100737.88;5091798;28;20026;-67
2021/07/02 05:14:23;;;;;;;;;;;;;;;17.82;100.00;100734.59;5090660;28;19920;-66
2021/07/02 05:16:49;;;;;;;;;;;;;;;17.82;100.00;100735.44;5071746;28;19959;-66
2021/07/02 05:19:16;;;;;;;;;;;;;;;17.75;100.00;100717.94;5082554;28;20422;-66
2021/07/02 05:21:43;;;;;;;;;;;;;;;17.81;100.00;100724.63;5091252;28;20427;-66
2021/07/02 05:24:09;;;;;;;;;;;;;;;17.83;100.00;100736.31;5091320;28;20011;-66
2021/07/02 05:26:36;;;;;;;;;;;;;;;17.80;100.00;100737.50;5091453;28;19959;-67
2021/07/02 05:29:02;;;;;;;;;;;;;;;17.85;100.00;100737.84;5091133;28;20375;-71
2021/07/02 05:31:28;;;;;;;;;;;;;;;17.77;100.00;100734.25;5090708;28;20011;-72
2021/07/02 05:33:55;;;;;;;;;;;;;;;17.72;100.00;100737.50;5091846;28;19955;-72
2021/07/02 05:36:22;;;;;;;;;;;;;;;17.59;100.00;100748.16;5090737;28;19965;-72
2021/07/02 05:38:49;;;;;;;;;;;;;;;17.56;100.00;100749.34;5091373;28;19978;-72
2021/07/02 05:41:15;;;;;;;;;;;;;;;17.32;100.00;100751.00;5072685;28;19924;-73
2021/07/02 05:43:41;;;;;;;;;;;;;;;17.37;100.00;100755.97;5091539;28;20015;-72
2021/07/02 05:46:08;;;;;;;;;;;;;;;17.33;100.00;100757.34;5091494;28;20031;-72
2021/07/02 05:48:34;;;;;;;;;;;;;;;17.39;100.00;100753.94;5091344;28;20341;-73
2021/07/02 05:51:00;;;;;;;;;;;;;;;17.38;100.00;100754.97;5091462;28;20221;-72
2021/07/02 05:53:28;;;;;;;;;;;;;;;17.42;100.00;100759.06;5091233;28;20452;-73
2021/07/02 05:55:54;;;;;;;;;;;;;;;17.51;100.00;100757.22;5091469;28;20012;-72
2021/07/02 05:58:21;;;;;;;;;;;;;;;17.68;100.00;100755.34;5090961;28;20357;-68
2021/07/02 06:00:47;;;;;;;;;;;;;;;17.87;100.00;100751.41;5091224;28;19969;-67
2021/07/02 06:03:13;;;;;;;;;;;;;;;18.00;100.00;100751.78;5091387;28;20364;-68
2021/07/02 06:05:39;;;;;;;;;;;;;;;18.16;100.00;100750.91;5090973;28;19974;-68
2021/07/02 06:08:06;;;;;;;;;;;;;;;18.23;100.00;100738.16;5091252;28;19920;-67
2021/07/02 06:10:34;;;;;;;;;;;;;;;18.48;100.00;100742.75;5091023;28;19924;-68
2021/07/02 06:13:00;;;;;;;;;;;;;;;18.51;100.00;100725.91;5091189;28;19920;-67
2021/07/02 06:15:27;;;;;;;;;;;;;;;18.71;100.00;100731.84;5090974;28;20355;-67
2021/07/02 06:17:53;;;;;;;;;;;;;;;19.12;100.00;100723.44;5091046;28;19952;-68
2021/07/02 06:20:22;;;;;;;;;;;;;;;19.52;100.00;100724.22;5091171;28;19924;-67
2021/07/02 06:22:48;;;;;;;;;;;;;;;19.77;100.00;100704.72;5091342;28;19931;-68
2021/07/02 06:25:14;;;;;;;;;;;;;;;20.28;100.00;100701.31;5091382;28;20440;-68
2021/07/02 06:27:42;;;;;;;;;;;;;;;20.52;100.00;100702.94;5090933;28;19920;-68
2021/07/02 06:30:09;;;;;;;;;;;;;;;20.11;100.00;100697.03;5091118;28;19970;-68
2021/07/02 06:32:35;;;;;;;;;;;;;;;19.63;100.00;100697.25;5087741;28;19999;-68
2021/07/02 06:35:01;;;;;;;;;;;;;;;19.80;100.00;100703.50;5090769;28;19964;-68
2021/07/02 06:37:28;;;;;;;;;;;;;;;19.96;100.00;100697.84;5090728;28;19973;-68
2021/07/02 06:39:54;;;;;;;;;;;;;;;20.03;100.00;100697.94;5091021;28;19920;-68
2021/07/02 06:42:20;;;;;;;;;;;;;;;20.36;100.00;100686.59;5091035;28;19956;-68
2021/07/02 06:44:48;;;;;;;;;;;;;;;20.66;100.00;100687.44;5091351;28;20335;-68
2021/07/02 06:47:14;;;;;;;;;;;;;;;20.81;100.00;100700.38;5090572;28;20006;-68
2021/07/02 06:49:40;;;;;;;;;;;;;;;20.67;100.00;100693.78;5090977;28;20366;-68
2021/07/02 06:52:07;;;;;;;;;;;;;;;20.37;100.00;100699.34;5090751;28;20382;-68
2021/07/02 06:54:34;;;;;;;;;;;;;;;20.48;100.00;100704.34;5072498;28;19951;-68
2021/07/02 06:57:03;;;;;;;;;;;;;;;20.64;100.00;100707.97;5090565;28;20370;-68
2021/07/02 06:59:30;;;;;;;;;;;;;;;20.37;100.00;100707.59;5090792;28;19966;-68
2021/07/02 07:01:58;;;;;;;;;;;;;;;20.63;100.00;100720.91;5090921;28;19924;-68
2021/07/02 07:04:25;;;;;;;;;;;;;;;20.49;100.00;100721.75;5090530;28;19985;-69
2021/07/02 07:06:51;;;;;;;;;;;;;;;20.30;100.00;100712.16;5090577;28;19973;-68
2021/07/02 07:09:17;;;;;;;;;;;;;;;20.61;100.00;100716.63;5091129;28;19994;-69
2021/07/02 07:11:44;;;;;;;;;;;;;;;20.50;100.00;100720.72;5094460;28;19920;-68
2021/07/02 07:14:10;;;;;;;;;;;;;;;20.48;100.00;100729.16;5094001;28;19963;-69
2021/07/02 07:16:36;;;;;;;;;;;;;;;20.40;100.00;100716.34;5094094;28;20354;-69
2021/07/02 07:19:04;;;;;;;;;;;;;;;20.82;100.00;100736.03;5094151;28;20057;-68
2021/07/02 07:21:30;;;;;;;;;;;;;;;20.77;100.00;100727.47;5094150;28;19959;-68
2021/07/02 07:23:56;;;;;;;;;;;;;;;20.52;100.00;100724.13;5094129;28;19923;-69
2021/07/02 07:26:23;;;;;;;;;;;;;;;20.54;100.00;100730.31;5093860;28;19958;-69
2021/07/02 07:28:49;;;;;;;;;;;;;;;20.14;100.00;100727.81;5094047;28;19959;-68
2021/07/02 07:31:15;;;;;;;;;;;;;;;20.06;100.00;100745.28;5093794;28;19955;-68
2021/07/02 07:33:46;;;;;;;;;;;;;;;20.05;100.00;100748.22;5075496;28;19928;-68
2021/07/02 07:36:16;;;;;;;;;;;;;;;20.33;100.00;100755.88;5093864;28;19970;-68
2021/07/02 07:38:42;;;;;;;;;;;;;;;20.39;100.00;100755.09;5093460;28;19959;-68
2021/07/02 07:41:08;;;;;;;;;;;;;;;20.42;100.00;100757.50;5093742;28;19980;-68
2021/07/02 07:43:35;;;;;;;;;;;;;;;20.38;100.00;100750.66;5093712;28;19955;-69
2021/07/02 07:46:01;;;;;;;;;;;;;;;20.45;100.00;100746.09;5093506;28;19920;-69
2021/07/02 07:48:27;;;;;;;;;;;;;;;20.30;100.00;100759.03;5093056;28;20035;-69
2021/07/02 07:51:02;;;;;;;;;;;;;;;20.16;100.00;100753.31;5075520;28;19920;-69
2021/07/02 07:53:30;;;;;;;;;;;;;;;20.09;100.00;100748.72;5093691;28;19920;-69
2021/07/02 07:55:56;;;;;;;;;;;;;;;21.26;100.00;100752.69;5093675;28;19920;-69
2021/07/02 07:58:22;;;;;;;;;;;;;;;21.02;100.00;100740.97;5093366;28;19966;-69
2021/07/02 08:00:49;;;;;;;;;;;;;;;22.14;100.00;100738.69;5093496;28;19920;-69
2021/07/02 08:03:15;;;;;;;;;;;;;;;22.51;100.00;100744.94;5093443;28;19923;-69
2021/07/02 08:05:42;;;;;;;;;;;;;;;22.83;100.00;100737.88;5075099;28;19939;-69
2021/07/02 08:08:12;;;;;;;;;;;;;;;22.97;100.00;100733.28;5093099;28;20283;-69
2021/07/02 08:10:40;;;;;;;;;;;;;;;22.34;100.00;100745.25;5093088;28;19927;-69
2021/07/02 08:13:06;;;;;;;;;;;;;;;22.05;100.00;100743.53;5093118;28;19945;-69
2021/07/02 08:15:33;;;;;;;;;;;;;;;21.64;100.00;100745.06;5093240;28;20406;-69
2021/07/02 08:17:59;;;;;;;;;;;;;;;21.45;100.00;100746.53;5092876;28;19967;-69
2021/07/02 08:20:25;;;;;;;;;;;;;;;21.46;100.00;100752.91;5092384;28;19943;-69
2021/07/02 08:22:52;;;;;;;;;;;;;;;21.22;100.00;100750.31;5092196;28;20359;-69
2021/07/02 08:25:18;;;;;;;;;;;;;;;21.07;100.00;100747.59;5092685;28;19958;-69
2021/07/02 08:30:30;;;;;;;;;;;;;;;22.22;100.00;100738.53;5092699;28;19927;-68
2021/07/02 08:32:56;;;;;;;;;;;;;;;22.50;100.00;100737.69;5092668;28;19963;-69
2021/07/02 08:35:22;;;;;;;;;;;;;;;22.56;100.00;100726.69;5092883;28;19972;-69
2021/07/02 08:37:51;;;;;;;;;;;;;;;22.18;100.00;100734.47;5092067;28;20010;-69
2021/07/02 08:40:18;;;;;;;;;;;;;;;23.05;100.00;100719.25;5090200;28;19939;-69
2021/07/02 08:42:45;;;;;;;;;;;;;;;23.91;100.00;100722.44;5092077;28;20347;-69
2021/07/02 08:45:12;;;;;;;;;;;;;;;23.99;100.00;100722.22;5092519;28;19951;-69
2021/07/02 08:47:38;;;;;;;;;;;;;;;23.83;100.00;100714.31;5074066;28;20011;-68
2021/07/02 08:50:07;;;;;;;;;;;;;;;24.51;100.00;100722.38;5092142;28;19924;-69
2021/07/02 08:52:33;;;;;;;;;;;;;;;24.61;100.00;100726.63;5092415;28;19934;-69
2021/07/02 08:54:59;;;;;;;;;;;;;;;24.98;100.00;100727.78;5092433;28;19920;-69
2021/07/02 08:57:26;;;;;;;;;;;;;;;25.36;100.00;100715.91;5092008;28;19946;-69
2021/07/02 08:59:55;;;;;;;;;;;;;;;25.17;100.00;100717.66;5091950;28;19966;-69
2021/07/02 09:02:28;;;;;;;;;;;;;;;25.96;100.00;100722.06;5092306;28;20206;-70
2021/07/02 09:04:55;;;;;;;;;;;;;;;26.78;100.00;100707.16;5092356;28;19926;-69
2021/07/02 09:07:21;;;;;;;;;;;;;;;26.80;100.00;100705.00;5091775;28;19920;-69
2021/07/02 09:09:49;;;;;;;;;;;;;;;25.86;100.00;100723.44;5092072;28;19962;-69
2021/07/02 09:12:16;;;;;;;;;;;;;;;24.24;100.00;100721.59;5091968;28;20378;-69
2021/07/02 09:14:56;;;;;;;;;;;;;;;23.27;100.00;100726.59;5092041;28;19959;-69
2021/07/02 09:17:24;;;;;;;;;;;;;;;23.32;100.00;100729.59;5091657;28;19919;-69
2021/07/02 09:20:01;;;;;;;;;;;;;;;23.92;100.00;100726.94;5091619;28;19980;-68
2021/07/02 09:22:28;;;;;;;;;;;;;;;23.76;100.00;100719.00;5091839;28;20355;-69
2021/07/02 09:24:54;;;;;;;;;;;;;;;24.13;100.00;100714.78;5091789;28;19919;-69
2021/07/02 09:27:25;;;;;;;;;;;;;;;25.16;100.00;100715.09;5091549;28;19920;-69
2021/07/02 09:30:03;;;;;;;;;;;;;;;26.13;100.00;100712.09;5091444;28;19946;-69
2021/07/02 09:32:30;;;;;;;;;;;;;;;26.97;100.00;100699.66;5091459;28;19920;-69
2021/07/02 09:34:58;;;;;;;;;;;;;;;24.84;100.00;100715.91;5091724;28;19920;-69
2021/07/02 09:37:26;;;;;;;;;;;;;;;23.40;100.00;100715.56;5091289;28;19927;-69
2021/07/02 09:39:52;;;;;;;;;;;;;;;23.86;100.00;100719.44;5073315;28;19946;-69
2021/07/02 09:42:22;;;;;;;;;;;;;;;24.34;100.00;100718.38;5091362;28;19963;-69
2021/07/02 09:45:03;;;;;;;;;;;;;;;25.28;100.00;100706.94;5091530;28;19998;-68
2021/07/02 09:47:30;;;;;;;;;;;;;;;25.98;100.00;100706.03;5091304;28;19978;-69
2021/07/02 09:50:11;;;;;;;;;;;;;;;26.26;100.00;100697.22;5091385;28;19951;-69
2021/07/02 09:52:41;;;;;;;;;;;;;;;26.84;100.00;100701.50;5091294;28;19978;-69
2021/07/02 09:55:08;;;;;;;;;;;;;;;27.27;100.00;100699.66;5091176;28;20171;-69
2021/07/02 09:57:34;;;;;;;;;;;;;;;27.11;96.93;100703.97;5091055;28;19967;-69
2021/07/02 10:00:09;;;;;;;;;;;;;;;26.63;99.17;100701.97;5091181;28;19966;-69
2021/07/02 10:02:51;;;;;;;;;;;;;;;25.92;100.00;100707.78;5091445;28;19923;-68
2021/07/02 10:05:18;;;;;;;;;;;;;;;25.05;100.00;100705.56;5091097;28;19928;-69
2021/07/02 10:07:54;;;;;;;;;;;;;;;25.11;100.00;100710.22;5090940;28;19958;-69
2021/07/02 10:10:21;;;;;;;;;;;;;;;24.62;100.00;100711.69;5073019;28;19963;-69
2021/07/02 10:12:48;;;;;;;;;;;;;;;24.16;100.00;100713.47;5090965;28;20382;-69
2021/07/02 10:15:15;;;;;;;;;;;;;;;25.19;100.00;100712.75;5091226;28;19951;-69
2021/07/02 10:17:42;;;;;;;;;;;;;;;26.08;100.00;100711.94;5090887;28;19941;-69
2021/07/02 10:20:09;;;;;;;;;;;;;;;26.49;100.00;100713.25;5072866;28;20411;-69
2021/07/02 10:22:36;;;;;;;;;;;;;;;26.99;99.50;100711.41;5091197;28;20006;-69
2021/07/02 10:25:02;;;;;;;;;;;;;;;27.14;88.09;100705.41;5091074;28;19951;-69
2021/07/02 10:27:29;;;;;;;;;;;;;;;26.89;89.46;100710.00;5090631;28;20023;-69
2021/07/02 10:29:56;;;;;;;;;;;;;;;25.78;100.00;100715.38;5090426;28;20014;-69
2021/07/02 10:32:24;;;;;;;;;;;;;;;25.81;100.00;100708.53;5091086;28;19970;-69
2021/07/02 10:34:51;;;;;;;;;;;;;;;26.68;100.00;100702.13;5087637;28;19978;-69
2021/07/02 10:37:17;;;;;;;;;;;;;;;27.62;97.05;100704.53;5090623;28;19920;-69
2021/07/02 10:39:46;;;;;;;;;;;;;;;27.10;90.45;100705.06;5090880;28;19920;-68
2021/07/02 10:42:13;;;;;;;;;;;;;;;26.10;97.74;100707.00;5090875;28;19920;-69
2021/07/02 10:44:59;;;;;;;;;;;;;;;25.02;100.00;100712.41;5092106;28;19989;-68
2021/07/02 10:47:27;;;;;;;;;;;;;;;25.19;100.00;100701.63;5094138;28;19924;-69
2021/07/02 10:49:53;;;;;;;;;;;;;;;25.14;100.00;100704.22;5094808;28;20007;-69
2021/07/02 10:52:21;;;;;;;;;;;;;;;25.09;100.00;100705.97;5094556;28;19927;-69
2021/07/02 10:54:48;;;;;;;;;;;;;;;26.15;100.00;100709.09;5094725;28;19927;-69
2021/07/02 10:57:17;;;;;;;;;;;;;;;26.20;100.00;100706.47;5094136;28;20387;-69
2021/07/02 11:00:02;;;;;;;;;;;;;;;26.92;100.00;100702.28;5094703;28;20018;-68
2021/07/02 11:02:30;;;;;;;;;;;;;;;27.40;99.04;100704.22;5094292;28;19928;-69
2021/07/02 11:04:57;;;;;;;;;;;;;;;27.43;91.26;100698.16;5094178;28;19920;-69
2021/07/02 11:07:49;;;;;;;;;;;;;;;28.39;97.33;100700.00;5094208;28;20340;-69
2021/07/02 11:10:15;;;;;;;;;;;;;;;27.74;82.67;100712.94;5073028;28;19955;-69
2021/07/02 11:12:58;;;;;;;;;;;;;;;27.10;83.18;100702.25;5094481;28;19920;-69
2021/07/02 11:15:25;;;;;;;;;;;;;;;26.82;90.01;100714.84;5090209;28;19969;-69
2021/07/02 11:18:09;;;;;;;;;;;;;;;27.14;93.96;100706.28;5075819;28;19920;-70
2021/07/02 11:20:36;;;;;;;;;;;;;;;26.59;92.12;100715.50;5083575;28;20275;-70
2021/07/02 11:23:13;;;;;;;;;;;;;;;27.05;100.00;100710.47;5093403;28;19962;-70
2021/07/02 11:25:44;;;;;;;;;;;;;;;27.43;93.82;100714.88;5093715;28;20002;-70
2021/07/02 11:28:13;;;;;;;;;;;;;;;27.82;84.55;100720.94;5093168;28;19927;-70
2021/07/02 11:30:40;;;;;;;;;;;;;;;27.45;84.53;100717.47;5093462;28;19920;-70
2021/07/02 11:33:15;;;;;;;;;;;;;;;26.79;88.32;100715.31;5093863;28;20352;-75
2021/07/02 11:35:43;;;;;;;;;;;;;;;27.45;87.82;100709.94;5075974;28;19953;-75
2021/07/02 11:38:11;;;;;;;;;;;;;;;26.95;80.68;100715.75;5093693;28;20409;-75
2021/07/02 11:40:38;;;;;;;;;;;;;;;26.85;85.48;100719.94;5093443;28;19920;-75
2021/07/02 11:43:05;;;;;;;;;;;;;;;27.34;82.21;100707.91;5093674;28;19920;-75
2021/07/02 11:45:41;;;;;;;;;;;;;;;26.62;84.31;100714.16;5093764;28;19966;-75
2021/07/02 11:48:08;;;;;;;;;;;;;;;25.31;87.92;100721.22;5093541;28;19989;-75
2021/07/02 11:50:40;;;;;;;;;;;;;;;24.81;95.80;100715.47;5093651;28;19920;-75
2021/07/02 11:53:06;;;;;;;;;;;;;;;25.71;100.00;100720.16;5093640;28;19959;-75
2021/07/02 11:55:32;;;;;;;;;;;;;;;26.02;89.09;100708.13;5093501;28;20010;-75
2021/07/02 11:58:14;;;;;;;;;;;;;;;26.81;94.87;100707.56;5093066;28;20011;-76
2021/07/02 12:00:41;;;;;;;;;;;;;;;26.79;86.24;100712.53;5093403;28;19981;-74
2021/07/02 12:03:08;;;;;;;;;;;;;;;26.48;92.43;100719.03;5093345;28;20007;-76
2021/07/02 12:05:34;;;;;;;;;;;;;;;25.34;93.15;100722.75;5093244;28;19971;-75
2021/07/02 12:08:02;;;;;;;;;;;;;;;25.07;97.67;100718.16;5093051;28;19977;-75
2021/07/02 12:10:28;;;;;;;;;;;;;;;25.32;100.00;100716.50;5093132;28;20422;-75
2021/07/02 12:13:05;;;;;;;;;;;;;;;26.11;99.50;100714.28;5093012;28;20391;-75
2021/07/02 12:15:32;;;;;;;;;;;;;;;25.90;94.12;100713.56;5092825;28;20375;-75
2021/07/02 12:18:02;;;;;;;;;;;;;;;26.31;91.49;100711.31;5093086;28;20398;-75
2021/07/02 12:20:28;;;;;;;;;;;;;;;27.01;88.43;100712.03;5092774;28;20399;-75
2021/07/02 12:23:02;;;;;;;;;;;;;;;27.46;83.40;100713.56;5093146;28;19973;-75
2021/07/02 12:25:28;;;;;;;;;;;;;;;28.14;80.04;100712.28;5092969;28;19924;-75
2021/07/02 12:27:59;;;;;;;;;;;;;;;28.42;80.64;100710.66;5092422;28;19920;-75
2021/07/02 12:30:25;;;;;;;;;;;;;;;27.18;78.78;100707.50;5093644;28;19930;-76
2021/07/02 12:32:52;;;;;;;;;;;;;;;27.12;88.54;100713.16;5092583;28;19965;-76
2021/07/02 12:35:18;;;;;;;;;;;;;;;26.53;86.25;100706.13;5089529;28;19927;-76